createdAt,value
2019-02-26T05:23:03.001Z,0.1
2019-02-26T05:25:01.188Z,0.2
2019-02-26T05:26:05.119Z,0.3
2019-02-26T05:28:03.818Z,0.4
2019-02-26T05:29:01.501Z,0.5
2019-02-26T05:30:01.185Z,0.6
2019-02-26T05:31:03.078Z,0.7
2019-02-26T05:32:03.952Z,0.9
2019-02-26T05:34:01.248Z,1.1
2019-02-26T05:35:01.103Z,1.3
2019-02-26T05:36:01.657Z,1.7
2019-02-26T05:37:02.345Z,2.1
2019-02-26T05:38:03.492Z,2.5
2019-02-26T05:39:02.242Z,3.0
2019-02-26T05:40:02.199Z,3.6
2019-02-26T05:41:01.170Z,4.3
2019-02-26T05:42:03.261Z,5.1
2019-02-26T05:43:01.789Z,6.1
2019-02-26T05:44:04.055Z,7.3
2019-02-26T05:45:03.583Z,8.8
2019-02-26T05:46:03.827Z,10.5
2019-02-26T05:47:01.559Z,12.5
2019-02-26T05:48:01.102Z,15.1
2019-02-26T05:49:03.471Z,18.1
2019-02-26T05:50:02.474Z,21.7
2019-02-26T05:51:03.455Z,26.0
2019-02-26T05:52:02.055Z,31.1
2019-02-26T05:53:02.412Z,37.0
2019-02-26T05:54:05.201Z,44.1
2019-02-26T05:55:01.116Z,52.3
2019-02-26T05:56:01.113Z,62.2
2019-02-26T05:57:01.738Z,73.7
2019-02-26T05:58:01.105Z,87.3
2019-02-26T05:59:02.556Z,103.6
2019-02-26T06:00:02.279Z,123.3
2019-02-26T06:01:01.114Z,146.9
2019-02-26T06:02:01.109Z,174.7
2019-02-26T06:03:03.020Z,207.5
2019-02-26T06:04:04.091Z,245.7
2019-02-26T06:05:01.106Z,289.9
2019-02-26T06:06:01.131Z,338.7
2019-02-26T06:07:02.159Z,390.2
2019-02-26T06:08:01.118Z,444.0
2019-02-26T06:09:02.789Z,501.2
2019-02-26T06:10:01.111Z,563.6
2019-02-26T06:11:01.113Z,632.1
2019-02-26T06:12:01.114Z,703.1
2019-02-26T06:13:02.166Z,780.3
2019-02-26T06:14:06.592Z,864.1
2019-02-26T06:15:04.951Z,954.3
2019-02-26T06:16:01.931Z,1052.3
2019-02-26T06:17:01.118Z,1159.9
2019-02-26T06:18:01.147Z,1276.1
2019-02-26T06:19:01.262Z,1399.5
2019-02-26T06:20:02.552Z,1528.4
2019-02-26T06:21:01.373Z,1664.1
2019-02-26T06:22:01.111Z,1811.9
2019-02-26T06:23:01.149Z,1974.1
2019-02-26T06:24:01.267Z,2151.0
2019-02-26T06:25:03.960Z,2341.6
2019-02-26T06:26:02.486Z,2545.5
2019-02-26T06:27:01.117Z,2767.5
2019-02-26T06:28:02.843Z,3003.3
2019-02-26T06:29:01.263Z,3250.3
2019-02-26T06:30:04.044Z,3508.1
2019-02-26T06:31:01.115Z,3775.5
2019-02-26T06:32:02.920Z,4051.4
2019-02-26T06:33:04.054Z,4337.1
2019-02-26T06:34:03.566Z,4633.7
2019-02-26T06:35:01.116Z,4943.9
2019-02-26T06:36:01.649Z,5268.5
2019-02-26T06:37:01.121Z,5606.5
2019-02-26T06:39:03.264Z,5985.5
2019-02-26T06:40:03.064Z,6376.1
2019-02-26T06:41:01.104Z,6777.1
2019-02-26T06:42:02.738Z,7191.7
2019-02-26T06:43:01.105Z,7618.5
2019-02-26T06:44:01.301Z,8057.0
2019-02-26T06:45:03.391Z,8508.4
2019-02-26T06:46:02.656Z,8972.3
2019-02-26T06:47:02.545Z,9446.1
2019-02-26T06:48:01.102Z,9930.3
2019-02-26T06:49:01.285Z,10424.9
2019-02-26T06:50:02.823Z,10931.1
2019-02-26T06:51:02.637Z,11450.5
2019-02-26T06:52:01.103Z,11983.5
2019-02-26T06:53:04.362Z,12528.2
2019-02-26T06:54:01.356Z,13057.5
2019-02-26T06:55:03.401Z,13600.3
2019-02-26T06:56:01.349Z,14156.1
2019-02-26T06:57:01.107Z,14722.3
2019-02-26T06:58:01.106Z,15300.2
2019-02-26T06:59:02.912Z,15891.8
2019-02-26T07:00:03.999Z,16495.3
2019-02-26T07:01:01.119Z,17112.1
2019-02-26T07:02:01.109Z,17749.7
2019-02-26T07:03:02.619Z,18408.2
2019-02-26T07:04:01.305Z,19085.5
2019-02-26T07:05:01.103Z,19774.6
2019-02-26T07:06:03.142Z,20463.1
2019-02-26T07:07:02.363Z,21144.7
2019-02-26T07:08:02.120Z,21816.5
2019-02-26T07:09:01.323Z,22481.7
2019-02-26T07:10:01.115Z,23139.0
2019-02-26T07:12:01.102Z,23843.5
2019-02-26T07:13:02.127Z,24560.1
2019-02-26T07:14:03.073Z,25270.2
2019-02-26T07:15:01.172Z,25987.4
2019-02-26T07:16:04.531Z,26740.4
2019-02-26T07:17:01.099Z,27488.8
2019-02-26T07:18:04.377Z,28213.4
2019-02-26T07:19:03.731Z,28921.2
2019-02-26T07:20:03.135Z,29634.3
2019-02-26T07:21:01.100Z,30373.3
2019-02-26T07:22:01.095Z,31141.7
2019-02-26T07:23:01.102Z,31925.5
2019-02-26T07:24:03.287Z,32731.0
2019-02-26T07:25:01.101Z,33529.9
2019-02-26T07:26:01.104Z,34336.0
2019-02-26T07:27:02.389Z,35107.0
2019-02-26T07:28:02.844Z,35869.0
2019-02-26T07:29:03.286Z,36592.1
2019-02-26T07:30:01.100Z,37290.6
2019-02-26T07:31:02.676Z,37961.4
2019-02-26T07:32:01.104Z,38618.1
2019-02-26T07:33:02.857Z,39284.1
2019-02-26T07:34:03.065Z,39991.7
2019-02-26T07:35:01.106Z,40697.3
2019-02-26T07:36:02.197Z,41433.0
2019-02-26T07:37:01.113Z,42295.9
2019-02-26T07:38:01.664Z,43271.8
2019-02-26T07:39:01.318Z,44289.7
2019-02-26T07:40:03.222Z,45337.4
2019-02-26T07:41:01.937Z,46366.9
2019-02-26T07:42:01.113Z,47368.5
2019-02-26T07:43:04.839Z,48347.3
2019-02-26T07:44:01.267Z,49290.7
2019-02-26T07:45:01.104Z,50136.1
2019-02-26T07:46:01.110Z,51037.1
2019-02-26T07:47:03.546Z,52163.7
2019-02-26T07:48:01.163Z,53421.0
2019-02-26T07:49:02.538Z,54813.9
2019-02-26T07:50:04.009Z,56155.0
2019-02-26T07:51:01.116Z,57392.5
2019-02-26T07:52:03.738Z,58435.1
2019-02-26T07:53:01.141Z,59316.1
2019-02-26T07:54:01.264Z,60102.5
2019-02-26T07:55:01.119Z,60828.9
2019-02-26T07:56:01.705Z,61529.9
2019-02-26T07:57:02.584Z,62203.0
2019-02-26T07:58:01.118Z,62850.9
2019-02-26T07:59:03.838Z,62893.5
2019-02-26T08:00:01.118Z,62755.5
2019-02-26T08:01:01.114Z,62491.3
2019-02-26T08:02:01.793Z,61752.7
2019-02-26T08:03:06.117Z,61065.7
2019-02-26T08:04:01.316Z,60234.1
2019-02-26T08:05:01.121Z,59436.2
2019-02-26T08:06:04.629Z,58453.6
2019-02-26T08:07:01.920Z,57718.3
2019-02-26T08:08:01.127Z,57074.6
2019-02-26T08:09:04.623Z,56581.2
2019-02-26T08:15:02.899Z,57220.8
2019-02-26T08:16:02.431Z,58108.9
2019-02-26T08:17:01.820Z,59014.1
2019-02-26T08:18:02.929Z,60140.1
2019-02-26T08:19:01.482Z,61045.9
2019-02-26T08:20:02.189Z,61882.1
2019-02-26T08:21:02.928Z,62680.0
2019-02-26T08:22:01.103Z,63662.6
2019-02-26T08:23:01.405Z,64397.9
2019-02-26T08:24:01.142Z,65041.6
2019-02-26T08:25:01.253Z,65535.0
2019-02-26T08:30:01.388Z,65535.0
2019-02-26T08:45:01.396Z,65535.0
2019-02-26T09:00:01.281Z,65535.0
2019-02-26T09:15:01.407Z,65535.0
2019-02-26T09:30:03.264Z,65535.0
2019-02-26T09:45:01.462Z,65535.0
2019-02-26T10:00:03.217Z,65535.0
2019-02-26T10:15:02.288Z,65535.0
2019-02-26T10:30:02.714Z,65535.0
2019-02-26T10:45:01.477Z,65535.0
2019-02-26T11:00:02.331Z,65535.0
2019-02-26T11:15:02.430Z,65535.0
2019-02-26T11:30:02.058Z,65535.0
2019-02-26T11:45:01.399Z,65535.0
2019-02-26T12:00:01.845Z,65535.0
2019-02-26T12:35:03.295Z,65535.0
2019-02-26T12:45:03.859Z,65535.0
2019-02-26T13:00:01.018Z,65535.0
2019-02-26T13:35:05.138Z,65535.0
2019-02-26T13:45:05.673Z,65535.0
2019-02-26T14:00:00.696Z,65535.0
2019-02-26T14:15:00.634Z,65535.0
2019-02-26T14:30:00.757Z,65535.0
2019-02-26T14:45:00.720Z,65535.0
2019-02-26T14:51:00.439Z,65356.2
2019-02-26T14:52:00.436Z,64919.5
2019-02-26T14:53:00.440Z,64426.3
2019-02-26T14:54:00.440Z,63989.6
2019-02-26T14:55:00.583Z,63731.0
2019-02-26T14:56:05.441Z,63385.5
2019-02-26T14:57:00.439Z,62873.1
2019-02-26T15:00:01.155Z,62873.1
2019-02-26T15:01:00.785Z,62660.5
2019-02-26T15:02:00.439Z,62008.3
2019-02-26T15:03:00.440Z,61365.9
2019-02-26T15:04:00.446Z,60661.7
2019-02-26T15:05:00.678Z,59921.0
2019-02-26T15:06:01.177Z,59618.7
2019-02-26T15:07:03.265Z,59358.3
2019-02-26T15:08:00.443Z,59670.5
2019-02-26T15:09:00.453Z,60107.3
2019-02-26T15:10:00.611Z,60365.9
2019-02-26T15:11:00.443Z,60476.8
2019-02-26T15:12:01.014Z,60344.6
2019-02-26T15:13:00.453Z,59461.0
2019-02-26T15:14:00.450Z,58391.5
2019-02-26T15:15:00.641Z,57228.7
2019-02-26T15:16:00.465Z,56218.3
2019-02-26T15:17:00.450Z,55570.2
2019-02-26T15:18:00.564Z,54851.9
2019-02-26T15:19:00.459Z,54144.7
2019-02-26T15:20:00.658Z,53431.9
2019-02-26T15:21:00.456Z,52420.4
2019-02-26T15:22:00.447Z,51577.6
2019-02-26T15:23:00.450Z,50180.8
2019-02-26T15:24:00.461Z,48575.7
2019-02-26T15:25:00.626Z,46941.8
2019-02-26T15:26:00.447Z,45510.5
2019-02-26T15:27:00.448Z,44463.3
2019-02-26T15:28:04.840Z,43622.7
2019-02-26T15:29:00.993Z,42930.9
2019-02-26T15:30:00.593Z,42300.3
2019-02-26T15:31:00.450Z,41707.5
2019-02-26T15:32:00.456Z,41170.1
2019-02-26T15:33:00.699Z,40668.5
2019-02-26T15:34:00.461Z,40191.1
2019-02-26T15:35:00.698Z,39735.0
2019-02-26T15:36:00.459Z,39294.3
2019-02-26T15:37:00.458Z,38878.7
2019-02-26T15:38:00.460Z,38483.5
2019-02-26T15:39:00.459Z,38099.6
2019-02-26T15:40:02.324Z,37727.1
2019-02-26T15:41:00.460Z,37360.5
2019-02-26T15:42:00.466Z,36995.3
2019-02-26T15:43:00.460Z,36637.5
2019-02-26T15:44:00.538Z,36286.9
2019-02-26T15:45:00.917Z,35940.2
2019-02-26T15:46:00.761Z,35586.3
2019-02-26T15:47:02.247Z,35223.1
2019-02-26T15:48:03.698Z,34844.4
2019-02-26T15:49:00.465Z,34446.3
2019-02-26T15:50:00.605Z,34044.1
2019-02-26T15:51:00.479Z,33644.3
2019-02-26T15:52:00.836Z,33246.5
2019-02-26T15:53:00.470Z,32838.9
2019-02-26T15:54:00.472Z,32422.3
2019-02-26T15:55:00.605Z,31991.9
2019-02-26T15:56:00.463Z,31554.3
2019-02-26T15:57:01.042Z,31110.2
2019-02-26T15:58:03.895Z,30658.1
2019-02-26T15:59:04.509Z,30202.5
2019-02-26T16:00:00.617Z,29745.6
2019-02-26T16:01:00.465Z,29288.5
2019-02-26T16:02:00.464Z,28831.8
2019-02-26T16:03:00.467Z,28387.1
2019-02-26T16:04:00.466Z,27958.3
2019-02-26T16:05:01.407Z,27523.6
2019-02-26T16:06:00.943Z,27078.5
2019-02-26T16:07:00.473Z,26622.9
2019-02-26T16:08:00.470Z,26162.0
2019-02-26T16:09:00.479Z,25695.5
2019-02-26T16:10:00.624Z,25225.3
2019-02-26T16:11:01.094Z,24756.2
2019-02-26T16:12:00.474Z,24285.6
2019-02-26T16:13:00.474Z,23815.4
2019-02-26T16:14:00.497Z,23345.3
2019-02-26T16:15:00.626Z,22870.1
2019-02-26T16:16:00.475Z,22389.9
2019-02-26T16:17:05.486Z,21907.2
2019-02-26T16:18:00.478Z,21419.5
2019-02-26T16:19:00.790Z,20927.7
2019-02-26T16:20:00.618Z,20433.1
2019-02-26T16:21:00.481Z,19934.5
2019-02-26T16:22:00.512Z,19432.7
2019-02-26T16:23:00.838Z,18931.1
2019-02-26T16:24:00.481Z,18427.7
2019-02-26T16:25:00.624Z,17926.2
2019-02-26T16:26:00.714Z,17424.2
2019-02-26T16:27:00.518Z,16921.6
2019-02-26T16:28:00.478Z,16419.8
2019-02-26T16:29:00.993Z,15919.6
2019-02-26T16:30:00.655Z,15422.2
2019-02-26T16:31:01.925Z,14928.5
2019-02-26T16:32:02.629Z,14437.6
2019-02-26T16:33:00.483Z,13948.7
2019-02-26T16:34:00.484Z,13462.6
2019-02-26T16:35:00.623Z,12979.6
2019-02-26T16:36:00.483Z,12501.9
2019-02-26T16:37:00.483Z,12028.7
2019-02-26T16:38:00.490Z,11559.1
2019-02-26T16:39:00.493Z,11093.1
2019-02-26T16:40:00.653Z,10632.7
2019-02-26T16:41:02.775Z,10176.9
2019-02-26T16:42:05.494Z,9726.1
2019-02-26T16:43:00.665Z,9279.7
2019-02-26T16:44:00.562Z,8838.7
2019-02-26T16:45:01.245Z,8403.9
2019-02-26T16:46:00.545Z,7975.4
2019-02-26T16:47:00.518Z,7554.6
2019-02-26T16:48:00.487Z,7143.5
2019-02-26T16:49:00.685Z,6743.7
2019-02-26T16:50:11.701Z,6356.3
2019-02-26T16:51:02.032Z,5980.7
2019-02-26T16:52:00.983Z,5617.2
2019-02-26T16:53:01.134Z,5265.7
2019-02-26T16:54:00.698Z,4926.7
2019-02-26T16:55:00.697Z,4599.3
2019-02-26T16:56:00.487Z,4285.4
2019-02-26T16:57:00.487Z,3985.4
2019-02-26T16:58:03.041Z,3699.3
2019-02-26T16:59:00.614Z,3426.9
2019-02-26T17:00:00.767Z,3168.1
2019-02-26T17:01:00.530Z,2922.7
2019-02-26T17:02:01.836Z,2690.1
2019-02-26T17:03:01.252Z,2469.5
2019-02-26T17:04:00.490Z,2259.9
2019-02-26T17:05:00.669Z,2061.0
2019-02-26T17:06:00.495Z,1872.9
2019-02-26T17:07:00.848Z,1695.7
2019-02-26T17:08:00.652Z,1529.3
2019-02-26T17:09:00.490Z,1373.9
2019-02-26T17:10:00.634Z,1229.3
2019-02-26T17:11:00.492Z,1095.3
2019-02-26T17:12:00.493Z,971.9
2019-02-26T17:13:02.229Z,858.7
2019-02-26T17:14:00.777Z,755.5
2019-02-26T17:15:00.649Z,662.0
2019-02-26T17:16:00.778Z,577.4
2019-02-26T17:17:01.533Z,501.3
2019-02-26T17:18:00.497Z,433.3
2019-02-26T17:19:00.494Z,372.7
2019-02-26T17:20:00.663Z,319.1
2019-02-26T17:21:00.499Z,271.9
2019-02-26T17:22:01.782Z,230.7
2019-02-26T17:23:01.170Z,195.0
2019-02-26T17:24:00.494Z,164.2
2019-02-26T17:25:00.635Z,137.7
2019-02-26T17:26:01.086Z,115.2
2019-02-26T17:27:00.494Z,96.0
2019-02-26T17:28:00.778Z,79.8
2019-02-26T17:29:00.620Z,66.1
2019-02-26T17:30:01.067Z,54.7
2019-02-26T17:31:00.496Z,45.3
2019-02-26T17:32:03.865Z,37.5
2019-02-26T17:33:00.508Z,31.1
2019-02-26T17:34:00.502Z,25.9
2019-02-26T17:35:00.647Z,21.5
2019-02-26T17:36:01.947Z,17.9
2019-02-26T17:37:00.501Z,14.9
2019-02-26T17:38:00.498Z,12.5
2019-02-26T17:39:00.501Z,10.4
2019-02-26T17:40:03.158Z,8.7
2019-02-26T17:41:00.505Z,7.3
2019-02-26T17:42:00.504Z,6.2
2019-02-26T17:43:00.503Z,5.2
2019-02-26T17:44:02.141Z,4.4
2019-02-26T17:45:00.711Z,3.7
2019-02-26T17:46:00.499Z,3.2
2019-02-26T17:47:00.502Z,2.7
2019-02-26T17:48:00.502Z,2.3
2019-02-26T17:49:02.618Z,2.0
2019-02-26T17:50:01.062Z,1.7
2019-02-26T17:51:01.724Z,1.4
2019-02-26T17:52:00.503Z,1.2
2019-02-26T17:53:00.500Z,1.0
2019-02-26T17:54:01.941Z,0.9
2019-02-26T17:55:00.650Z,0.7
2019-02-26T17:56:00.504Z,0.6
2019-02-26T17:57:00.965Z,0.5
2019-02-26T17:58:00.796Z,0.4
2019-02-26T17:59:00.505Z,0.3
2019-02-26T18:00:00.718Z,0.3
2019-02-26T18:01:00.506Z,0.2
2019-02-26T18:02:00.560Z,0.1
